createdAt,value
2019-02-20T00:00:08.400Z,77.81
2019-02-20T00:01:08.435Z,77.71
2019-02-20T00:02:08.376Z,77.67
2019-02-20T00:03:08.363Z,77.26
2019-02-20T00:04:08.364Z,77.67
2019-02-20T00:05:08.347Z,77.47
2019-02-20T00:06:08.518Z,77.26
2019-02-20T00:07:08.320Z,77.36
2019-02-20T00:08:08.308Z,77.47
2019-02-20T00:09:08.311Z,77.15
2019-02-20T00:10:08.317Z,77.12
2019-02-20T00:11:08.310Z,77.43
2019-02-20T00:12:08.278Z,77.01
2019-02-20T00:13:08.253Z,76.71
2019-02-20T00:14:08.253Z,76.71
2019-02-20T00:15:08.238Z,77.12
2019-02-20T00:16:08.258Z,77.12
2019-02-20T00:17:08.213Z,76.91
2019-02-20T00:18:08.241Z,76.71
2019-02-20T00:19:08.210Z,76.81
2019-02-20T00:20:08.181Z,76.91
2019-02-20T00:21:08.203Z,77.53
2019-02-20T00:22:08.184Z,77.12
2019-02-20T00:23:08.145Z,76.81
2019-02-20T00:24:08.145Z,76.71
2019-02-20T00:25:08.127Z,77.01
2019-02-20T00:26:08.143Z,77.01
2019-02-20T00:27:08.125Z,77.12
2019-02-20T00:28:08.111Z,76.81
2019-02-20T00:29:08.089Z,76.91
2019-02-20T00:30:08.081Z,76.91
2019-02-20T00:31:08.066Z,76.71
2019-02-20T00:32:08.087Z,76.81
2019-02-20T00:33:08.040Z,76.61
2019-02-20T00:34:08.349Z,76.91
2019-02-20T00:35:08.027Z,76.71
2019-02-20T00:36:08.030Z,76.71
2019-02-20T00:37:08.051Z,76.81
2019-02-20T00:38:08.012Z,76.40
2019-02-20T00:39:07.981Z,76.74
2019-02-20T00:40:07.965Z,76.81
2019-02-20T00:41:07.954Z,76.91
2019-02-20T00:42:07.995Z,76.91
2019-02-20T00:43:07.933Z,76.81
2019-02-20T00:44:07.923Z,76.95
2019-02-20T00:45:07.916Z,76.74
2019-02-20T00:46:07.901Z,77.15
2019-02-20T00:47:07.905Z,77.33
2019-02-20T00:48:07.909Z,77.05
2019-02-20T00:49:07.875Z,77.05
2019-02-20T00:50:07.862Z,76.74
2019-02-20T00:51:07.854Z,77.05
2019-02-20T00:52:07.867Z,76.95
2019-02-20T00:53:07.824Z,76.71
2019-02-20T00:54:09.401Z,76.74
2019-02-20T00:55:07.801Z,76.43
2019-02-20T00:56:07.823Z,76.95
2019-02-20T00:57:07.813Z,76.64
2019-02-20T00:58:07.775Z,76.74
2019-02-20T00:59:07.791Z,76.74
2019-02-20T01:00:07.762Z,76.95
2019-02-20T01:01:07.735Z,76.84
2019-02-20T01:02:07.732Z,76.64
2019-02-20T01:03:07.731Z,76.40
2019-02-20T01:04:07.706Z,76.23
2019-02-20T01:05:07.692Z,76.23
2019-02-20T01:06:07.681Z,76.32
2019-02-20T01:07:07.701Z,76.53
2019-02-20T01:08:07.700Z,76.53
2019-02-20T01:09:07.651Z,76.23
2019-02-20T01:10:07.643Z,76.32
2019-02-20T01:11:07.646Z,76.19
2019-02-20T01:12:07.661Z,76.12
2019-02-20T01:13:07.612Z,75.88
2019-02-20T01:14:07.602Z,76.50
2019-02-20T01:15:07.592Z,75.78
2019-02-20T01:16:07.611Z,75.60
2019-02-20T01:17:07.601Z,75.46
2019-02-20T01:18:07.560Z,75.36
2019-02-20T01:19:07.553Z,75.46
2019-02-20T01:20:07.546Z,75.26
2019-02-20T01:21:07.523Z,75.26
2019-02-20T01:22:07.512Z,75.36
2019-02-20T01:23:07.525Z,75.05
2019-02-20T01:24:07.528Z,75.05
2019-02-20T01:25:07.476Z,75.05
2019-02-20T01:26:07.474Z,75.05
2019-02-20T01:27:07.458Z,74.84
2019-02-20T01:28:07.487Z,75.05
2019-02-20T01:29:07.442Z,74.63
2019-02-20T01:30:07.424Z,74.84
2019-02-20T01:31:07.464Z,74.84
2019-02-20T01:32:07.406Z,75.09
2019-02-20T01:33:07.432Z,74.98
2019-02-20T01:34:07.390Z,75.09
2019-02-20T01:35:07.393Z,74.77
2019-02-20T01:36:07.364Z,74.88
2019-02-20T01:37:07.387Z,75.19
2019-02-20T01:38:07.361Z,75.19
2019-02-20T01:39:07.360Z,75.40
2019-02-20T01:40:07.327Z,75.12
2019-02-20T01:41:07.343Z,75.50
2019-02-20T01:42:07.348Z,75.92
2019-02-20T01:43:07.338Z,76.64
2019-02-20T01:44:07.353Z,75.71
2019-02-20T01:45:07.277Z,75.74
2019-02-20T01:46:07.370Z,75.63
2019-02-20T01:47:07.267Z,75.60
2019-02-20T01:48:07.250Z,75.40
2019-02-20T01:49:07.231Z,75.32
2019-02-20T01:50:07.235Z,75.32
2019-02-20T01:51:07.204Z,75.22
2019-02-20T01:52:07.238Z,75.60
2019-02-20T01:53:10.187Z,76.74
2019-02-20T01:54:07.850Z,76.46
2019-02-20T01:55:07.204Z,75.60
2019-02-20T01:56:07.184Z,75.43
2019-02-20T01:57:07.218Z,75.12
2019-02-20T01:58:07.171Z,75.12
2019-02-20T01:59:07.109Z,74.91
2019-02-20T02:00:07.104Z,75.57
2019-02-20T02:01:07.105Z,76.71
2019-02-20T02:02:07.086Z,76.29
2019-02-20T02:03:07.070Z,76.29
2019-02-20T02:04:07.065Z,76.29
2019-02-20T02:05:14.825Z,76.71
2019-02-20T02:06:08.066Z,76.92
2019-02-20T02:07:07.049Z,76.61
2019-02-20T02:08:07.016Z,77.12
2019-02-20T02:09:07.041Z,76.50
2019-02-20T02:10:06.997Z,76.61
2019-02-20T02:11:06.989Z,76.50
2019-02-20T02:12:06.996Z,76.50
2019-02-20T02:13:06.969Z,76.29
2019-02-20T02:14:06.954Z,76.40
2019-02-20T02:15:06.959Z,76.29
2019-02-20T02:16:06.943Z,76.50
2019-02-20T02:17:06.935Z,76.61
2019-02-20T02:18:06.912Z,76.40
2019-02-20T02:19:06.905Z,76.40
2019-02-20T02:20:06.884Z,76.64
2019-02-20T02:21:06.882Z,76.43
2019-02-20T02:22:06.930Z,76.33
2019-02-20T02:23:06.850Z,76.29
2019-02-20T02:24:06.849Z,76.54
2019-02-20T02:25:06.832Z,76.43
2019-02-20T02:26:10.826Z,76.43
2019-02-20T02:27:06.814Z,76.95
2019-02-20T02:28:06.823Z,76.75
2019-02-20T02:29:06.795Z,76.54
2019-02-20T02:30:06.781Z,76.54
2019-02-20T02:31:06.768Z,76.64
2019-02-20T02:32:06.761Z,76.75
2019-02-20T02:33:06.798Z,76.85
2019-02-20T02:34:06.737Z,77.30
2019-02-20T02:35:06.723Z,77.26
2019-02-20T02:36:06.747Z,77.68
2019-02-20T02:37:06.706Z,77.37
2019-02-20T02:38:06.686Z,76.95
2019-02-20T02:39:06.714Z,77.06
2019-02-20T02:40:06.668Z,77.16
2019-02-20T02:41:06.668Z,76.85
2019-02-20T02:42:06.646Z,76.75
2019-02-20T02:43:06.639Z,76.64
2019-02-20T02:44:06.697Z,76.23
2019-02-20T02:45:06.645Z,76.43
2019-02-20T02:46:06.601Z,76.54
2019-02-20T02:47:06.608Z,76.61
2019-02-20T02:48:06.581Z,76.54
2019-02-20T02:49:06.601Z,76.43
2019-02-20T02:50:06.616Z,76.43
2019-02-20T02:51:06.549Z,76.54
2019-02-20T02:52:06.554Z,76.54
2019-02-20T02:53:06.529Z,76.64
2019-02-20T02:54:06.533Z,76.75
2019-02-20T02:55:06.536Z,76.33
2019-02-20T02:56:06.495Z,76.33
2019-02-20T02:57:06.500Z,76.33
2019-02-20T02:58:06.474Z,76.57
2019-02-20T02:59:06.467Z,76.85
2019-02-20T03:00:06.458Z,76.99
2019-02-20T03:01:06.479Z,76.54
2019-02-20T03:02:06.433Z,76.89
2019-02-20T03:03:06.426Z,77.26
2019-02-20T03:04:06.415Z,76.78
2019-02-20T03:05:06.398Z,77.26
2019-02-20T03:06:06.413Z,77.16
2019-02-20T03:07:06.381Z,77.37
2019-02-20T03:08:06.373Z,77.47
2019-02-20T03:09:06.382Z,77.58
2019-02-20T03:10:06.345Z,77.37
2019-02-20T03:11:06.339Z,77.37
2019-02-20T03:12:06.342Z,77.06
2019-02-20T03:13:06.312Z,77.06
2019-02-20T03:14:06.307Z,76.85
2019-02-20T03:15:06.307Z,77.12
2019-02-20T03:16:06.279Z,77.02
2019-02-20T03:17:06.291Z,77.02
2019-02-20T03:18:06.261Z,76.71
2019-02-20T03:19:06.250Z,76.40
2019-02-20T03:20:06.252Z,76.40
2019-02-20T03:21:06.242Z,76.71
2019-02-20T03:22:06.249Z,76.81
2019-02-20T03:23:06.209Z,76.50
2019-02-20T03:24:06.253Z,76.81
2019-02-20T03:25:06.208Z,76.61
2019-02-20T03:26:06.176Z,76.50
2019-02-20T03:27:06.162Z,76.71
2019-02-20T03:28:06.231Z,76.50
2019-02-20T03:29:06.162Z,76.50
2019-02-20T03:30:06.131Z,76.71
2019-02-20T03:31:06.133Z,76.61
2019-02-20T03:32:06.108Z,76.71
2019-02-20T03:33:06.134Z,76.50
2019-02-20T03:34:08.818Z,76.50
2019-02-20T03:35:06.097Z,76.40
2019-02-20T03:36:06.063Z,76.61
2019-02-20T03:37:06.059Z,76.36
2019-02-20T03:38:06.073Z,76.29
2019-02-20T03:39:06.030Z,76.36
2019-02-20T03:40:06.023Z,76.50
2019-02-20T03:41:06.006Z,76.36
2019-02-20T03:42:06.033Z,76.40
2019-02-20T03:43:05.997Z,76.78
2019-02-20T03:44:05.999Z,76.78
2019-02-20T03:45:06.003Z,76.36
2019-02-20T03:46:05.955Z,76.26
2019-02-20T03:47:05.975Z,76.98
2019-02-20T03:48:05.935Z,76.67
2019-02-20T03:49:05.969Z,76.67
2019-02-20T03:50:05.913Z,76.36
2019-02-20T03:51:05.907Z,76.36
2019-02-20T03:52:05.899Z,76.26
2019-02-20T03:53:05.891Z,76.36
2019-02-20T03:54:05.918Z,76.12
2019-02-20T03:55:05.919Z,76.46
2019-02-20T03:56:05.876Z,76.26
2019-02-20T03:57:05.859Z,76.26
2019-02-20T03:58:05.843Z,76.32
2019-02-20T03:59:05.818Z,76.36
2019-02-20T04:00:05.803Z,76.32
2019-02-20T04:01:05.795Z,76.67
2019-02-20T04:02:05.803Z,75.71
2019-02-20T04:03:05.780Z,75.71
2019-02-20T04:04:05.761Z,75.71
2019-02-20T04:05:05.756Z,75.84
2019-02-20T04:06:05.739Z,75.40
2019-02-20T04:07:05.756Z,75.60
2019-02-20T04:08:05.734Z,75.40
2019-02-20T04:09:05.710Z,75.81
2019-02-20T04:10:05.693Z,76.57
2019-02-20T04:11:05.734Z,76.43
2019-02-20T04:12:05.680Z,76.05
2019-02-20T04:13:05.688Z,76.26
2019-02-20T04:14:05.657Z,76.36
2019-02-20T04:15:05.642Z,76.43
2019-02-20T04:16:05.678Z,76.57
2019-02-20T04:17:05.652Z,76.46
2019-02-20T04:18:05.615Z,76.15
2019-02-20T04:19:05.596Z,76.67
2019-02-20T04:20:05.595Z,76.57
2019-02-20T04:21:05.583Z,76.23
2019-02-20T04:22:05.597Z,76.46
2019-02-20T04:23:05.555Z,76.36
2019-02-20T04:24:05.559Z,76.12
2019-02-20T04:25:05.530Z,76.26
2019-02-20T04:26:05.575Z,76.36
2019-02-20T04:27:05.523Z,76.26
2019-02-20T04:28:05.596Z,76.12
2019-02-20T04:29:05.487Z,76.26
2019-02-20T04:30:05.480Z,76.43
2019-02-20T04:31:05.467Z,76.43
2019-02-20T04:32:05.469Z,76.23
2019-02-20T04:33:05.519Z,76.26
2019-02-20T04:34:05.435Z,76.43
2019-02-20T04:35:05.425Z,76.64
2019-02-20T04:36:05.424Z,76.53
2019-02-20T04:37:05.430Z,76.32
2019-02-20T04:38:05.433Z,76.64
2019-02-20T04:39:05.397Z,76.43
2019-02-20T04:40:05.367Z,75.81
2019-02-20T04:41:05.356Z,76.43
2019-02-20T04:42:05.363Z,76.19
2019-02-20T04:43:05.366Z,76.19
2019-02-20T04:44:05.363Z,76.43
2019-02-20T04:45:05.325Z,76.40
2019-02-20T04:46:05.310Z,75.50
2019-02-20T04:47:05.291Z,75.26
2019-02-20T04:48:05.283Z,75.29
2019-02-20T04:49:05.314Z,75.46
2019-02-20T04:50:05.291Z,76.29
2019-02-20T04:51:05.259Z,75.50
2019-02-20T04:52:05.256Z,75.46
2019-02-20T04:53:05.266Z,75.26
2019-02-20T04:54:12.889Z,75.26
2019-02-20T04:55:06.214Z,75.60
2019-02-20T04:56:05.202Z,75.46
2019-02-20T04:57:05.194Z,75.60
2019-02-20T04:58:05.214Z,75.46
2019-02-20T04:59:05.164Z,75.67
2019-02-20T05:00:05.163Z,76.61
2019-02-20T05:01:05.153Z,76.50
2019-02-20T05:02:05.132Z,76.50
2019-02-20T05:03:05.164Z,75.36
2019-02-20T05:04:05.122Z,75.57
2019-02-20T05:05:05.128Z,75.36
2019-02-20T05:06:05.091Z,75.78
2019-02-20T05:07:05.095Z,74.95
2019-02-20T05:08:05.104Z,75.15
2019-02-20T05:09:05.055Z,75.36
2019-02-20T05:10:05.086Z,75.05
2019-02-20T05:11:05.038Z,74.95
2019-02-20T05:12:05.026Z,74.95
2019-02-20T05:13:05.015Z,74.84
2019-02-20T05:14:05.025Z,74.53
2019-02-20T05:15:04.999Z,74.43
2019-02-20T05:16:05.010Z,75.15
2019-02-20T05:17:04.979Z,74.84
2019-02-20T05:18:04.999Z,74.84
2019-02-20T05:19:04.953Z,75.15
2019-02-20T05:20:04.947Z,74.63
2019-02-20T05:21:04.933Z,75.15
2019-02-20T05:22:04.917Z,74.84
2019-02-20T05:23:04.940Z,74.95
2019-02-20T05:24:04.935Z,74.95
2019-02-20T05:25:04.899Z,75.36
2019-02-20T05:26:04.885Z,75.15
2019-02-20T05:27:04.868Z,75.46
2019-02-20T05:28:04.852Z,75.15
2019-02-20T05:29:04.862Z,75.57
2019-02-20T05:30:04.837Z,75.46
2019-02-20T05:31:04.825Z,74.84
2019-02-20T05:32:04.816Z,75.26
2019-02-20T05:33:04.823Z,75.26
2019-02-20T05:34:04.824Z,75.26
2019-02-20T05:35:04.775Z,75.05
2019-02-20T05:36:04.764Z,75.57
2019-02-20T05:37:04.768Z,75.05
2019-02-20T05:38:04.745Z,75.46
2019-02-20T05:39:04.737Z,75.57
2019-02-20T05:40:04.761Z,74.95
2019-02-20T05:41:04.721Z,75.26
2019-02-20T05:42:04.706Z,75.05
2019-02-20T05:43:04.743Z,75.46
2019-02-20T05:44:04.681Z,75.78
2019-02-20T05:45:04.704Z,75.78
2019-02-20T05:46:04.659Z,75.29
2019-02-20T05:47:04.650Z,75.46
2019-02-20T05:48:04.635Z,75.78
2019-02-20T05:49:04.646Z,75.26
2019-02-20T05:50:04.623Z,75.67
2019-02-20T05:51:04.630Z,75.36
2019-02-20T05:52:04.597Z,75.26
2019-02-20T05:53:04.588Z,74.84
2019-02-20T05:54:04.576Z,74.84
2019-02-20T05:55:04.567Z,75.26
2019-02-20T05:56:04.576Z,75.26
2019-02-20T05:57:04.543Z,75.15
2019-02-20T05:58:04.531Z,75.46
2019-02-20T05:59:04.541Z,75.05
2019-02-20T06:00:04.519Z,74.95
2019-02-20T06:01:04.529Z,74.53
2019-02-20T06:02:04.497Z,75.05
2019-02-20T06:03:05.156Z,74.95
2019-02-20T06:04:04.471Z,74.60
2019-02-20T06:05:04.461Z,74.84
2019-02-20T06:06:04.443Z,75.05
2019-02-20T06:07:04.446Z,74.63
2019-02-20T06:08:04.418Z,74.84
2019-02-20T06:09:04.454Z,74.60
2019-02-20T06:10:04.429Z,74.32
2019-02-20T06:11:14.387Z,74.74
2019-02-20T06:12:05.405Z,74.74
2019-02-20T06:13:04.377Z,75.12
2019-02-20T06:14:04.358Z,74.53
2019-02-20T06:15:04.382Z,74.81
2019-02-20T06:16:04.334Z,75.05
2019-02-20T06:17:04.334Z,74.60
2019-02-20T06:18:04.335Z,74.63
2019-02-20T06:19:04.322Z,74.81
2019-02-20T06:20:04.290Z,75.02
2019-02-20T06:21:04.334Z,74.63
2019-02-20T06:22:04.286Z,74.40
2019-02-20T06:23:04.291Z,74.81
2019-02-20T06:24:04.250Z,74.71
2019-02-20T06:25:04.235Z,74.40
2019-02-20T06:26:04.243Z,74.29
2019-02-20T06:27:04.218Z,74.08
2019-02-20T06:28:04.209Z,74.19
2019-02-20T06:29:04.207Z,74.29
2019-02-20T06:30:04.185Z,74.40
2019-02-20T06:31:04.183Z,74.71
2019-02-20T06:32:04.175Z,74.40
2019-02-20T06:33:04.157Z,74.29
2019-02-20T06:34:04.169Z,74.08
2019-02-20T06:35:04.132Z,74.29
2019-02-20T06:36:04.121Z,74.50
2019-02-20T06:37:04.111Z,74.19
2019-02-20T06:38:04.178Z,74.29
2019-02-20T06:39:04.111Z,74.40
2019-02-20T06:40:04.105Z,74.29
2019-02-20T06:41:04.067Z,74.29
2019-02-20T06:42:04.054Z,73.05
2019-02-20T06:43:04.042Z,74.19
2019-02-20T06:44:04.076Z,74.05
2019-02-20T06:45:04.022Z,74.50
2019-02-20T06:46:04.077Z,73.84
2019-02-20T06:47:04.002Z,73.64
2019-02-20T06:48:03.984Z,73.43
2019-02-20T06:49:04.003Z,73.94
2019-02-20T06:50:03.999Z,73.94
2019-02-20T06:51:03.960Z,73.84
2019-02-20T06:52:03.959Z,74.46
2019-02-20T06:53:03.932Z,73.94
2019-02-20T06:54:03.922Z,74.05
2019-02-20T06:55:03.943Z,73.94
2019-02-20T06:56:03.943Z,73.84
2019-02-20T06:57:03.899Z,74.05
2019-02-20T06:58:03.888Z,74.15
2019-02-20T06:59:03.869Z,73.84
2019-02-20T07:00:03.889Z,74.15
2019-02-20T07:01:03.855Z,73.77
2019-02-20T07:02:03.853Z,73.94
2019-02-20T07:03:03.837Z,74.26
2019-02-20T07:04:03.831Z,73.54
2019-02-20T07:05:03.822Z,74.36
2019-02-20T07:06:03.827Z,73.12
2019-02-20T07:07:03.802Z,73.98
2019-02-20T07:08:03.769Z,73.22
2019-02-20T07:09:03.760Z,73.74
2019-02-20T07:10:03.764Z,73.36
2019-02-20T07:11:03.780Z,73.94
2019-02-20T07:12:03.728Z,73.94
2019-02-20T07:13:03.721Z,74.46
2019-02-20T07:14:03.719Z,74.05
2019-02-20T07:15:03.706Z,73.43
2019-02-20T07:16:03.699Z,72.81
2019-02-20T07:17:03.698Z,73.84
2019-02-20T07:18:03.664Z,73.94
2019-02-20T07:19:03.668Z,73.64
2019-02-20T07:20:03.659Z,73.33
2019-02-20T07:21:03.638Z,73.39
2019-02-20T07:22:03.659Z,73.60
2019-02-20T07:23:03.614Z,73.39
2019-02-20T07:24:03.601Z,73.08
2019-02-20T07:25:03.847Z,73.19
2019-02-20T07:26:03.577Z,73.50
2019-02-20T07:27:03.614Z,73.16
2019-02-20T07:28:03.582Z,73.26
2019-02-20T07:29:03.547Z,72.74
2019-02-20T07:30:03.542Z,72.43
2019-02-20T07:31:03.566Z,72.53
2019-02-20T07:32:03.511Z,72.43
2019-02-20T07:33:03.536Z,72.53
2019-02-20T07:34:05.458Z,72.43
2019-02-20T07:35:03.489Z,72.43
2019-02-20T07:36:03.479Z,71.71
2019-02-20T07:37:03.473Z,71.92
2019-02-20T07:38:03.447Z,72.43
2019-02-20T07:39:03.460Z,72.12
2019-02-20T07:40:03.429Z,72.53
2019-02-20T07:41:03.419Z,72.74
2019-02-20T07:42:03.414Z,72.40
2019-02-20T07:43:03.397Z,72.40
2019-02-20T07:44:03.430Z,73.02
2019-02-20T07:45:03.375Z,72.09
2019-02-20T07:46:03.364Z,72.50
2019-02-20T07:47:03.349Z,71.67
2019-02-20T07:48:03.376Z,71.95
2019-02-20T07:49:03.353Z,72.19
2019-02-20T07:50:03.339Z,71.95
2019-02-20T07:51:03.313Z,71.54
2019-02-20T07:52:03.302Z,71.67
2019-02-20T07:53:03.293Z,71.75
2019-02-20T07:54:03.348Z,71.75
2019-02-20T07:55:12.603Z,71.33
2019-02-20T07:56:04.254Z,71.12
2019-02-20T07:57:03.259Z,71.54
2019-02-20T07:58:03.237Z,72.16
2019-02-20T07:59:03.225Z,71.12
2019-02-20T08:00:03.227Z,70.40
2019-02-20T08:01:03.233Z,70.99
2019-02-20T08:02:03.201Z,70.78
2019-02-20T08:03:03.180Z,70.82
2019-02-20T08:04:03.179Z,70.78
2019-02-20T08:05:03.164Z,71.20
2019-02-20T08:06:03.181Z,71.20
2019-02-20T08:07:03.141Z,70.57
2019-02-20T08:08:03.137Z,70.89
2019-02-20T08:09:03.140Z,70.99
2019-02-20T08:10:03.113Z,71.20
2019-02-20T08:11:03.103Z,70.68
2019-02-20T08:12:03.115Z,70.57
2019-02-20T08:13:03.078Z,70.89
2019-02-20T08:14:03.093Z,71.30
2019-02-20T08:15:03.058Z,70.78
2019-02-20T08:16:03.039Z,70.17
2019-02-20T08:17:03.080Z,70.06
2019-02-20T08:18:03.033Z,70.68
2019-02-20T08:19:03.012Z,71.51
2019-02-20T08:20:03.010Z,70.99
2019-02-20T08:21:03.070Z,70.57
2019-02-20T08:22:03.011Z,70.89
2019-02-20T08:23:02.983Z,70.37
2019-02-20T08:24:02.956Z,70.17
2019-02-20T08:25:02.941Z,69.65
2019-02-20T08:26:02.958Z,70.17
2019-02-20T08:27:02.924Z,70.37
2019-02-20T08:28:02.949Z,70.89
2019-02-20T08:29:02.918Z,70.06
2019-02-20T08:30:02.905Z,69.75
2019-02-20T08:31:02.874Z,69.41
2019-02-20T08:32:02.889Z,69.85
2019-02-20T08:33:02.859Z,70.03
2019-02-20T08:34:02.864Z,69.62
2019-02-20T08:35:02.830Z,69.93
2019-02-20T08:36:02.830Z,70.00
2019-02-20T08:37:02.818Z,69.69
2019-02-20T08:38:02.851Z,69.79
2019-02-20T08:39:02.817Z,69.31
2019-02-20T08:40:02.812Z,69.48
2019-02-20T08:41:02.770Z,69.38
2019-02-20T08:42:02.802Z,68.86
2019-02-20T08:43:02.756Z,69.89
2019-02-20T08:44:02.739Z,69.69
2019-02-20T08:45:02.727Z,69.86
2019-02-20T08:46:02.747Z,68.83
2019-02-20T08:47:02.735Z,69.35
2019-02-20T08:48:02.694Z,68.93
2019-02-20T08:49:02.689Z,68.21
2019-02-20T08:50:02.674Z,68.93
2019-02-20T08:51:02.663Z,68.73
2019-02-20T08:52:02.741Z,68.73
2019-02-20T08:53:02.642Z,68.93
2019-02-20T08:54:04.473Z,68.08
2019-02-20T08:55:02.631Z,67.36
2019-02-20T08:56:02.636Z,67.80
2019-02-20T08:57:02.597Z,67.60
2019-02-20T08:58:02.581Z,68.62
2019-02-20T08:59:02.584Z,68.62
2019-02-20T09:00:02.563Z,68.11
2019-02-20T09:01:02.551Z,68.62
2019-02-20T09:02:02.571Z,67.90
2019-02-20T09:03:02.528Z,68.90
2019-02-20T09:04:02.541Z,68.32
2019-02-20T09:05:02.509Z,68.29
2019-02-20T09:06:02.488Z,68.11
2019-02-20T09:07:02.513Z,67.36
2019-02-20T09:08:02.510Z,68.18
2019-02-20T09:09:02.465Z,67.87
2019-02-20T09:10:02.448Z,68.08
2019-02-20T09:11:02.453Z,68.35
2019-02-20T09:12:02.432Z,67.84
2019-02-20T09:13:02.442Z,67.74
2019-02-20T09:14:02.404Z,67.33
2019-02-20T09:15:02.397Z,67.53
2019-02-20T09:16:02.389Z,67.74
2019-02-20T09:17:02.374Z,67.40
2019-02-20T09:18:02.396Z,66.81
2019-02-20T09:19:02.350Z,67.19
2019-02-20T09:20:02.348Z,67.74
2019-02-20T09:21:02.327Z,66.99
2019-02-20T09:22:02.319Z,67.68
2019-02-20T09:23:02.311Z,67.36
2019-02-20T09:24:02.325Z,66.54
2019-02-20T09:25:02.297Z,66.34
2019-02-20T09:26:02.270Z,66.75
2019-02-20T09:27:02.258Z,66.64
2019-02-20T09:28:02.255Z,66.41
2019-02-20T09:29:02.279Z,66.00
2019-02-20T09:30:02.235Z,65.28
2019-02-20T09:31:02.230Z,65.80
2019-02-20T09:32:02.230Z,65.17
2019-02-20T09:33:02.194Z,65.48
2019-02-20T09:34:02.190Z,65.38
2019-02-20T09:35:02.213Z,65.25
2019-02-20T09:36:02.165Z,65.48
2019-02-20T09:37:02.155Z,64.66
2019-02-20T09:38:02.137Z,64.94
2019-02-20T09:39:02.138Z,65.25
2019-02-20T09:40:02.149Z,64.73
2019-02-20T09:41:02.108Z,65.14
2019-02-20T09:42:02.099Z,65.56
2019-02-20T09:43:02.092Z,65.48
2019-02-20T09:44:02.082Z,65.56
2019-02-20T09:45:02.061Z,65.56
2019-02-20T09:46:02.067Z,65.56
2019-02-20T09:47:02.045Z,65.56
2019-02-20T09:48:02.029Z,65.45
2019-02-20T09:49:02.035Z,65.45
2019-02-20T09:50:02.025Z,65.01
2019-02-20T09:51:02.038Z,65.53
2019-02-20T09:52:01.987Z,64.84
2019-02-20T09:53:01.981Z,65.22
2019-02-20T09:54:01.966Z,65.22
2019-02-20T09:55:01.958Z,65.42
2019-02-20T09:56:01.970Z,65.53
2019-02-20T09:57:01.955Z,65.53
2019-02-20T09:58:01.940Z,65.42
2019-02-20T09:59:01.925Z,65.50
2019-02-20T10:00:01.900Z,65.29
2019-02-20T10:01:02.878Z,65.50
2019-02-20T10:02:01.904Z,64.95
2019-02-20T10:03:01.870Z,64.57
2019-02-20T10:04:01.890Z,65.29
2019-02-20T10:05:01.843Z,63.34
2019-02-20T10:06:01.855Z,64.98
2019-02-20T10:07:01.853Z,64.16
2019-02-20T10:08:01.822Z,64.50
2019-02-20T10:09:01.804Z,64.67
2019-02-20T10:10:01.823Z,63.34
2019-02-20T10:11:01.780Z,64.67
2019-02-20T10:12:01.776Z,63.44
2019-02-20T10:13:01.754Z,63.34
2019-02-20T10:14:01.801Z,63.54
2019-02-20T10:15:01.792Z,63.54
2019-02-20T10:16:01.743Z,63.42
2019-02-20T10:17:01.713Z,63.31
2019-02-20T10:18:01.713Z,63.42
2019-02-20T10:19:01.701Z,62.90
2019-02-20T10:20:01.687Z,62.90
2019-02-20T10:21:01.693Z,62.80
2019-02-20T10:22:01.670Z,62.80
2019-02-20T10:23:01.652Z,63.31
2019-02-20T10:24:01.640Z,63.42
2019-02-20T10:25:01.669Z,62.80
2019-02-20T10:26:01.647Z,62.05
2019-02-20T10:27:01.606Z,62.26
2019-02-20T10:28:01.597Z,61.95
2019-02-20T10:29:01.593Z,62.87
2019-02-20T10:30:01.572Z,61.98
2019-02-20T10:31:01.564Z,61.87
2019-02-20T10:32:01.588Z,62.49
2019-02-20T10:33:01.541Z,62.39
2019-02-20T10:34:01.541Z,62.39
2019-02-20T10:35:01.527Z,62.05
2019-02-20T10:36:01.508Z,62.15
2019-02-20T10:37:01.574Z,62.15
2019-02-20T10:38:01.485Z,61.95
2019-02-20T10:39:01.478Z,61.74
2019-02-20T10:40:01.463Z,62.15
2019-02-20T10:41:01.474Z,63.07
2019-02-20T10:42:01.487Z,62.66
2019-02-20T10:43:03.510Z,62.02
2019-02-20T10:44:01.433Z,61.00
2019-02-20T10:45:01.407Z,62.23
2019-02-20T10:46:01.397Z,61.74
2019-02-20T10:47:01.392Z,61.92
2019-02-20T10:48:01.422Z,61.51
2019-02-20T10:49:01.384Z,61.71
2019-02-20T10:50:01.370Z,61.71
2019-02-20T10:51:01.348Z,60.79
2019-02-20T10:52:01.338Z,61.71
2019-02-20T10:53:01.329Z,61.74
2019-02-20T10:54:01.354Z,61.64
2019-02-20T10:55:01.302Z,61.95
2019-02-20T10:56:08.908Z,61.95
2019-02-20T10:57:02.290Z,62.05
2019-02-20T10:58:01.274Z,62.77
2019-02-20T10:59:01.294Z,62.26
2019-02-20T11:00:01.249Z,61.02
2019-02-20T11:01:01.248Z,61.23
2019-02-20T11:02:01.228Z,61.13
2019-02-20T11:03:01.212Z,61.64
2019-02-20T11:04:01.205Z,61.13
2019-02-20T11:05:01.209Z,61.64
2019-02-20T11:06:01.192Z,61.71
2019-02-20T11:07:01.220Z,61.82
2019-02-20T11:08:01.160Z,61.30
2019-02-20T11:09:01.149Z,60.58
2019-02-20T11:10:01.173Z,61.10
2019-02-20T11:11:01.130Z,60.79
2019-02-20T11:12:01.115Z,61.00
2019-02-20T11:13:01.133Z,62.12
2019-02-20T11:14:01.095Z,61.00
2019-02-20T11:15:01.102Z,61.71
2019-02-20T11:16:01.095Z,61.00
2019-02-20T11:17:01.063Z,62.02
2019-02-20T11:18:01.053Z,61.92
2019-02-20T11:19:01.047Z,61.18
2019-02-20T11:20:01.031Z,60.66
2019-02-20T11:21:01.055Z,60.86
2019-02-20T11:22:01.013Z,60.15
2019-02-20T11:23:00.999Z,60.63
2019-02-20T11:24:01.243Z,61.04
2019-02-20T11:25:00.988Z,60.66
2019-02-20T11:26:00.963Z,60.53
2019-02-20T11:27:00.972Z,60.25
2019-02-20T11:28:00.969Z,60.74
2019-02-20T11:29:00.930Z,60.53
2019-02-20T11:30:00.923Z,60.02
2019-02-20T11:31:00.917Z,60.12
2019-02-20T11:32:00.935Z,59.64
2019-02-20T11:33:00.892Z,59.41
2019-02-20T11:34:01.846Z,60.15
2019-02-20T11:35:00.862Z,59.53
2019-02-20T11:36:00.861Z,60.76
2019-02-20T11:37:00.865Z,59.64
2019-02-20T11:38:00.857Z,61.10
2019-02-20T11:39:00.830Z,60.58
2019-02-20T11:40:00.825Z,60.69
2019-02-20T11:41:00.798Z,61.82
2019-02-20T11:42:00.787Z,60.69
2019-02-20T11:43:00.812Z,61.00
2019-02-20T11:44:00.767Z,60.58
2019-02-20T11:45:00.761Z,60.35
2019-02-20T11:46:00.744Z,60.66
2019-02-20T11:47:00.749Z,60.56
2019-02-20T11:48:00.747Z,60.56
2019-02-20T11:49:00.732Z,59.94
2019-02-20T11:50:00.709Z,60.42
2019-02-20T11:51:00.697Z,59.71
2019-02-20T11:52:00.691Z,60.33
2019-02-20T11:53:00.667Z,60.22
2019-02-20T11:54:00.692Z,59.71
2019-02-20T11:55:00.649Z,59.61
2019-02-20T11:56:00.640Z,59.61
2019-02-20T11:57:00.634Z,60.02
2019-02-20T11:58:01.136Z,60.30
2019-02-20T11:59:00.609Z,60.02
2019-02-20T12:00:00.645Z,60.33
2019-02-20T12:01:00.587Z,59.48
2019-02-20T12:02:00.572Z,59.89
2019-02-20T12:03:00.567Z,60.19
2019-02-20T12:04:00.555Z,59.38
2019-02-20T12:05:00.592Z,59.17
2019-02-20T12:06:00.532Z,59.17
2019-02-20T12:07:00.562Z,59.17
2019-02-20T12:08:00.515Z,59.68
2019-02-20T12:09:00.508Z,60.30
2019-02-20T12:10:00.494Z,59.38
2019-02-20T12:11:00.474Z,59.27
2019-02-20T12:12:00.469Z,59.07
2019-02-20T12:13:00.472Z,59.17
2019-02-20T12:14:00.439Z,59.68
2019-02-20T12:15:00.430Z,59.96
2019-02-20T12:16:00.431Z,59.27
2019-02-20T12:17:00.409Z,59.48
2019-02-20T12:18:00.434Z,58.76
2019-02-20T12:19:00.390Z,58.04
2019-02-20T12:20:00.378Z,58.45
2019-02-20T12:21:00.370Z,58.97
2019-02-20T12:22:00.381Z,59.07
2019-02-20T12:23:00.356Z,58.04
2019-02-20T12:24:00.330Z,58.45
2019-02-20T12:25:00.377Z,58.35
2019-02-20T12:26:01.421Z,58.45
2019-02-20T12:27:00.297Z,58.15
2019-02-20T12:28:00.316Z,58.97
2019-02-20T12:29:00.284Z,59.27
2019-02-20T12:30:00.273Z,59.07
2019-02-20T12:31:00.254Z,58.56
2019-02-20T12:32:00.275Z,58.66
2019-02-20T12:33:00.270Z,59.30
2019-02-20T12:34:01.553Z,58.76
2019-02-20T12:35:00.288Z,58.79
2019-02-20T12:36:00.205Z,58.97
2019-02-20T12:37:00.188Z,58.76
2019-02-20T12:38:00.181Z,58.76
2019-02-20T12:39:00.196Z,58.33
2019-02-20T12:40:00.279Z,58.25
2019-02-20T12:41:00.143Z,57.71
2019-02-20T12:42:00.141Z,57.20
2019-02-20T12:43:00.138Z,57.43
2019-02-20T12:44:00.139Z,57.30
2019-02-20T12:45:00.169Z,56.59
2019-02-20T12:46:00.132Z,57.33
2019-02-20T12:47:00.095Z,57.10
2019-02-20T12:48:00.095Z,57.20
2019-02-20T12:49:00.081Z,56.89
2019-02-20T12:50:00.289Z,56.76
2019-02-20T12:51:00.042Z,56.87
2019-02-20T12:52:00.174Z,56.69